Terminal Aerodrome Forecast
Issued by NWS Sterling, VA

Current Version | Previous Version | Graphics & Text | Print | Product List | Glossary On
Versions: 1 2 3 4 5 6 7 8 9 10 11 12 13 14 15 16 17 18 19 20 21 22 23 24
546
FTUS41 KLWX 261721
TAFIAD
TAF
KIAD 261721Z 2618/2724 36007KT P6SM BKN019 OVC024
     FM262100 VRB03KT P6SM BKN040
     FM262300 17004KT P6SM BKN100
     FM270700 15004KT 6SM BR FEW040
     FM270900 14004KT 2SM BR SCT250
     FM271400 17007KT P6SM SCT250
     FM271800 18011G19KT P6SM FEW250
     FM272300 18009KT P6SM SCT050=

USA.gov is the U.S. government's official web portal to all federal, state and local government web resources and services.